Pacific Phoenix — 9V7612 — position and weather

sailwx.info

Track history (hours):
 
Tides and Currents Weather Stations Pressure Air Temp Water Temp Dewpoint Dewpoint Depression Visibility Wind Speed Wind Dir Waves Ship Positions

Pacific Phoenix

Last reported at 2017-Oct-19 16:07 UTC. Time now 2017-Nov-22 03:44 UTC.
Position N 04°33' W 002°53'.
Warning: this ship's position is 33 days out of date.

Length 58 m; draft 4.6 m.

Type: Ship. MMSI: 566075000.

Date/timePositionNaut miles runAvg speedWind from/ knotsBaromVisibWave heightAir tempDewpointWater temp
2017-Oct-19 16:07N 04°33' W 002°53'1 8.8
2017-Oct-19 15:59N 04°32' W 002°53'1 1.4
2017-Oct-19 15:30N 04°32' W 002°52'1 1.6
2017-Oct-19 15:00N 04°33' W 002°52'1 1.6
2017-Oct-19 14:30N 04°33' W 002°52'1 1.8
2017-Oct-19 13:59N 04°34' W 002°52'1 1.8
2017-Oct-19 13:28N 04°35' W 002°52'  
2017-Oct-16 05:42N 04°19' W 002°59'0 2.1
2017-Oct-16 05:29N 04°19' W 002°59'1 2.2
2017-Oct-16 04:59N 04°18' W 002°59'0 0.8
2017-Oct-16 04:30N 04°17' W 002°59'1 1.3
2017-Oct-16 03:59N 04°17' W 002°59'1 2.1
2017-Oct-16 03:29N 04°16' W 002°59'1 2.0
2017-Oct-16 02:59N 04°15' W 002°59'0 0.9
2017-Oct-16 02:30N 04°14' W 002°59'1 2.1
2017-Oct-16 01:59N 04°13' W 002°59'2 2.9
2017-Oct-16 01:18N 04°11' W 002°59'1 4.2
2017-Oct-16 00:57N 04°10' W 002°59'2 2.8
2017-Oct-16 00:22N 04°08' W 002°58'1 1.8
2017-Oct-15 23:58N 04°08' W 002°58'1 2.1
2017-Oct-15 23:30N 04°07' W 002°59'  
2017-Oct-13 12:36N 04°12' W 002°48'4 2.9
2017-Oct-13 11:08N 04°16' W 002°49'1 4.6
2017-Oct-13 11:00N 04°16' W 002°49'2 4.6
2017-Oct-13 10:30N 04°19' W 002°49'2 4.3
2017-Oct-13 09:59N 04°21' W 002°49'1 2.2
2017-Oct-13 09:29N 04°22' W 002°50'1 1.1
2017-Oct-13 09:00N 04°23' W 002°50'1 1.8
2017-Oct-13 08:29N 04°23' W 002°50'1 1.8
2017-Oct-13 07:59N 04°24' W 002°50'0 0.2
2017-Oct-13 07:30N 04°24' W 002°50'2 3.7
2017-Oct-13 06:59N 04°23' W 002°50'0 0.4
2017-Oct-13 06:29N 04°23' W 002°50'0 0.7
2017-Oct-13 05:59N 04°23' W 002°50'0 0.9
2017-Oct-13 05:29N 04°22' W 002°50'1 2.2
2017-Oct-13 04:58N 04°22' W 002°49'2 3.7
2017-Oct-13 04:30N 04°21' W 002°48'2 3.6
2017-Oct-13 04:00N 04°21' W 002°46'2 3.6
2017-Oct-13 03:30N 04°21' W 002°44'1 2.2
2017-Oct-13 03:00N 04°21' W 002°43'1 1.7
2017-Oct-13 02:30N 04°20' W 002°42'1 2.7
2017-Oct-13 01:59N 04°19' W 002°43'1 1.7
2017-Oct-13 01:28N 04°18' W 002°43'1 1.7
2017-Oct-13 01:00N 04°19' W 002°43'1 1.6
2017-Oct-13 00:30N 04°20' W 002°42'1 1.7
2017-Oct-12 23:59N 04°20' W 002°42'1 1.7
2017-Oct-12 23:29N 04°21' W 002°41'1 2.1
2017-Oct-12 23:00N 04°22' W 002°42'1 2.3
2017-Oct-12 22:30N 04°22' W 002°43'1 1.7
2017-Oct-12 22:00N 04°21' W 002°43'1 1.8
2017-Oct-12 21:29N 04°20' W 002°43'1 1.8
2017-Oct-12 20:59N 04°19' W 002°43'0 0.5
2017-Oct-12 20:30N 04°20' W 002°43'1 1.9
2017-Oct-12 20:00N 04°21' W 002°44'1 1.8
2017-Oct-12 19:29N 04°21' W 002°44'1 1.2
2017-Oct-12 18:59N 04°21' W 002°44'1 1.9
2017-Oct-12 18:30N 04°20' W 002°45'1 2.1
2017-Oct-12 18:00N 04°19' W 002°44'1 1.1
2017-Oct-12 17:29N 04°18' W 002°44'1 1.9
2017-Oct-12 16:59N 04°19' W 002°45'1 1.9
2017-Oct-12 16:29N 04°20' W 002°46'1 1.9
2017-Oct-12 16:00N 04°20' W 002°46'0 0.3
2017-Oct-12 15:29N 04°21' W 002°46'1 1.8
2017-Oct-12 14:59N 04°20' W 002°46'1 1.8
2017-Oct-12 14:30N 04°19' W 002°46'1 1.8
2017-Oct-12 13:59N 04°18' W 002°46'1 2.1
2017-Oct-12 13:29N 04°17' W 002°46'1 2.6
2017-Oct-12 12:59N 04°15' W 002°46'2 3.2
2017-Oct-12 12:30N 04°14' W 002°46'2 3.1
2017-Oct-12 12:00N 04°12' W 002°46'2 3.1
2017-Oct-12 11:29N 04°11' W 002°45'2 3.2
2017-Oct-12 10:59N 04°09' W 002°45'2 3.2
2017-Oct-12 10:30N 04°08' W 002°45'2 3.2
2017-Oct-12 09:59N 04°06' W 002°45'2 4.0
2017-Oct-12 09:30N 04°04' W 002°44'2 4.3
2017-Oct-12 08:59N 04°02' W 002°43'1 1.8
2017-Oct-12 08:30N 04°02' W 002°43'1 2.1
2017-Oct-12 07:59N 04°00' W 002°44'10 0.9
2017-Oct-11 21:13N 04°09' W 002°50'2 1.0
2017-Oct-11 18:52N 04°10' W 002°51'1 1.4
2017-Oct-11 18:27N 04°11' W 002°52'1 1.2
2017-Oct-11 17:33N 04°12' W 002°52'0 0.7
2017-Oct-11 17:28N 04°12' W 002°52'25 1.4
2017-Oct-10 23:59N 04°37' W 002°56'0 0.5
2017-Oct-10 23:30N 04°37' W 002°55'1 2.6
2017-Oct-10 22:59N 04°36' W 002°55'1 1.9
2017-Oct-10 22:30N 04°35' W 002°55'1 2.4
2017-Oct-10 21:58N 04°36' W 002°55'1 2.3
2017-Oct-10 21:30N 04°37' W 002°56'0 0.6
2017-Oct-10 20:58N 04°37' W 002°55'1 1.7
2017-Oct-10 20:29N 04°36' W 002°55'1 2.2
2017-Oct-10 19:59N 04°35' W 002°55'0 0.9
2017-Oct-10 19:29N 04°35' W 002°55'1 1.2
2017-Oct-10 19:00N 04°36' W 002°55'1 1.1
2017-Oct-10 18:30N 04°36' W 002°54'1 1.5
2017-Oct-10 17:59N 04°37' W 002°54'1 1.5
2017-Oct-10 17:29N 04°38' W 002°54'1 1.6
2017-Oct-10 16:57N 04°39' W 002°54'3 5.6
2017-Oct-10 16:29N 04°37' W 002°56'2 3.5
2017-Oct-10 15:59N 04°36' W 002°55'1 2.6
2017-Oct-10 15:30N 04°35' W 002°55'0 0.6
2017-Oct-10 15:00N 04°35' W 002°55'3 1.6
2017-Oct-10 12:51N 04°37' W 002°52'1 2.4
2017-Oct-10 12:28N 04°37' W 002°53'1 1.7
2017-Oct-10 11:58N 04°37' W 002°54'1 1.9
2017-Oct-10 11:27N 04°36' W 002°54'0 0.3
2017-Oct-10 10:53N 04°36' W 002°54'1 0.7
2017-Oct-10 09:46N 04°37' W 002°54'1 1.6
2017-Oct-10 09:18N 04°36' W 002°54'1 2.2
2017-Oct-10 08:54N 04°35' W 002°54'2 1.1
2017-Oct-10 07:13N 04°37' W 002°54'0 1.0
2017-Oct-10 07:00N 04°37' W 002°54'1 1.6
2017-Oct-10 06:30N 04°38' W 002°54'2 2.4
2017-Oct-10 05:48N 04°37' W 002°52'2 5.6
2017-Oct-10 05:29N 04°36' W 002°52'1 2.1
2017-Oct-10 04:59N 04°35' W 002°52'1 1.5
2017-Oct-10 04:30N 04°35' W 002°52'1 1.4
2017-Oct-10 03:59N 04°36' W 002°52'1 1.3
2017-Oct-10 03:29N 04°36' W 002°52'1 1.2
2017-Oct-10 02:59N 04°37' W 002°52'1 1.2
2017-Oct-10 02:28N 04°37' W 002°53'0 1.0
2017-Oct-10 02:00N 04°38' W 002°53'2 0.7
2017-Oct-09 23:06N 04°37' W 002°51'0 3.0
2017-Oct-09 22:59N 04°37' W 002°51'1 2.2
2017-Oct-09 22:29N 04°36' W 002°52'0 0.8
2017-Oct-09 22:00N 04°35' W 002°52'1 1.0
2017-Oct-09 21:29N 04°35' W 002°51'0 0.4
2017-Oct-09 20:59N 04°35' W 002°51'1 2.4
2017-Oct-09 20:30N 04°36' W 002°52'0 0.8
2017-Oct-09 19:59N 04°36' W 002°52'1 2.7
2017-Oct-09 19:30N 04°35' W 002°52'1 1.4
2017-Oct-09 18:58N 04°34' W 002°52'1 1.5
2017-Oct-09 18:30N 04°35' W 002°52'1 1.5
2017-Oct-09 18:00N 04°36' W 002°52'1 1.5
2017-Oct-09 17:30N 04°36' W 002°52'2 2.9
2017-Oct-09 16:59N 04°37' W 002°54'2 4.4
2017-Oct-09 16:29N 04°35' W 002°55'  
Track history (hours):
 
Tides and Currents Weather Stations Pressure Air Temp Water Temp Dewpoint Dewpoint Depression Visibility Wind Speed Wind Dir Waves Ship Positions

Pacific Phoenix

Last reported at 2017-Oct-19 16:07 UTC. Time now 2017-Nov-22 03:44 UTC.
Position N 04°33' W 002°53'.
Warning: this ship's position is 33 days out of date.

Length 58 m; draft 4.6 m.

Type: Ship. MMSI: 566075000.

Date/timePositionNaut miles runAvg speedWind from/ knotsBaromVisibWave heightAir tempDewpointWater temp
2017-Oct-19 16:07N 04°33' W 002°53'1 8.8
2017-Oct-19 15:59N 04°32' W 002°53'1 1.4
2017-Oct-19 15:30N 04°32' W 002°52'1 1.6
2017-Oct-19 15:00N 04°33' W 002°52'1 1.6
2017-Oct-19 14:30N 04°33' W 002°52'1 1.8
2017-Oct-19 13:59N 04°34' W 002°52'1 1.8
2017-Oct-19 13:28N 04°35' W 002°52'  
2017-Oct-16 05:42N 04°19' W 002°59'0 2.1
2017-Oct-16 05:29N 04°19' W 002°59'1 2.2
2017-Oct-16 04:59N 04°18' W 002°59'0 0.8
2017-Oct-16 04:30N 04°17' W 002°59'1 1.3
2017-Oct-16 03:59N 04°17' W 002°59'1 2.1
2017-Oct-16 03:29N 04°16' W 002°59'1 2.0
2017-Oct-16 02:59N 04°15' W 002°59'0 0.9
2017-Oct-16 02:30N 04°14' W 002°59'1 2.1
2017-Oct-16 01:59N 04°13' W 002°59'2 2.9
2017-Oct-16 01:18N 04°11' W 002°59'1 4.2
2017-Oct-16 00:57N 04°10' W 002°59'2 2.8
2017-Oct-16 00:22N 04°08' W 002°58'1 1.8
2017-Oct-15 23:58N 04°08' W 002°58'1 2.1
2017-Oct-15 23:30N 04°07' W 002°59'  
2017-Oct-13 12:36N 04°12' W 002°48'4 2.9
2017-Oct-13 11:08N 04°16' W 002°49'1 4.6
2017-Oct-13 11:00N 04°16' W 002°49'2 4.6
2017-Oct-13 10:30N 04°19' W 002°49'2 4.3
2017-Oct-13 09:59N 04°21' W 002°49'1 2.2
2017-Oct-13 09:29N 04°22' W 002°50'1 1.1
2017-Oct-13 09:00N 04°23' W 002°50'1 1.8
2017-Oct-13 08:29N 04°23' W 002°50'1 1.8
2017-Oct-13 07:59N 04°24' W 002°50'0 0.2
2017-Oct-13 07:30N 04°24' W 002°50'2 3.7
2017-Oct-13 06:59N 04°23' W 002°50'0 0.4
2017-Oct-13 06:29N 04°23' W 002°50'0 0.7
2017-Oct-13 05:59N 04°23' W 002°50'0 0.9
2017-Oct-13 05:29N 04°22' W 002°50'1 2.2
2017-Oct-13 04:58N 04°22' W 002°49'2 3.7
2017-Oct-13 04:30N 04°21' W 002°48'2 3.6
2017-Oct-13 04:00N 04°21' W 002°46'2 3.6
2017-Oct-13 03:30N 04°21' W 002°44'1 2.2
2017-Oct-13 03:00N 04°21' W 002°43'1 1.7
2017-Oct-13 02:30N 04°20' W 002°42'1 2.7
2017-Oct-13 01:59N 04°19' W 002°43'1 1.7
2017-Oct-13 01:28N 04°18' W 002°43'1 1.7
2017-Oct-13 01:00N 04°19' W 002°43'1 1.6
2017-Oct-13 00:30N 04°20' W 002°42'1 1.7
2017-Oct-12 23:59N 04°20' W 002°42'1 1.7
2017-Oct-12 23:29N 04°21' W 002°41'1 2.1
2017-Oct-12 23:00N 04°22' W 002°42'1 2.3
2017-Oct-12 22:30N 04°22' W 002°43'1 1.7
2017-Oct-12 22:00N 04°21' W 002°43'1 1.8
2017-Oct-12 21:29N 04°20' W 002°43'1 1.8
2017-Oct-12 20:59N 04°19' W 002°43'0 0.5
2017-Oct-12 20:30N 04°20' W 002°43'1 1.9
2017-Oct-12 20:00N 04°21' W 002°44'1 1.8
2017-Oct-12 19:29N 04°21' W 002°44'1 1.2
2017-Oct-12 18:59N 04°21' W 002°44'1 1.9
2017-Oct-12 18:30N 04°20' W 002°45'1 2.1
2017-Oct-12 18:00N 04°19' W 002°44'1 1.1
2017-Oct-12 17:29N 04°18' W 002°44'1 1.9
2017-Oct-12 16:59N 04°19' W 002°45'1 1.9
2017-Oct-12 16:29N 04°20' W 002°46'1 1.9
2017-Oct-12 16:00N 04°20' W 002°46'0 0.3
2017-Oct-12 15:29N 04°21' W 002°46'1 1.8
2017-Oct-12 14:59N 04°20' W 002°46'1 1.8
2017-Oct-12 14:30N 04°19' W 002°46'1 1.8
2017-Oct-12 13:59N 04°18' W 002°46'1 2.1
2017-Oct-12 13:29N 04°17' W 002°46'1 2.6
2017-Oct-12 12:59N 04°15' W 002°46'2 3.2
2017-Oct-12 12:30N 04°14' W 002°46'2 3.1
2017-Oct-12 12:00N 04°12' W 002°46'2 3.1
2017-Oct-12 11:29N 04°11' W 002°45'2 3.2
2017-Oct-12 10:59N 04°09' W 002°45'2 3.2
2017-Oct-12 10:30N 04°08' W 002°45'2 3.2
2017-Oct-12 09:59N 04°06' W 002°45'2 4.0
2017-Oct-12 09:30N 04°04' W 002°44'2 4.3
2017-Oct-12 08:59N 04°02' W 002°43'1 1.8
2017-Oct-12 08:30N 04°02' W 002°43'1 2.1
2017-Oct-12 07:59N 04°00' W 002°44'10 0.9
2017-Oct-11 21:13N 04°09' W 002°50'2 1.0
2017-Oct-11 18:52N 04°10' W 002°51'1 1.4
2017-Oct-11 18:27N 04°11' W 002°52'1 1.2
2017-Oct-11 17:33N 04°12' W 002°52'0 0.7
2017-Oct-11 17:28N 04°12' W 002°52'25 1.4
2017-Oct-10 23:59N 04°37' W 002°56'0 0.5
2017-Oct-10 23:30N 04°37' W 002°55'1 2.6
2017-Oct-10 22:59N 04°36' W 002°55'1 1.9
2017-Oct-10 22:30N 04°35' W 002°55'1 2.4
2017-Oct-10 21:58N 04°36' W 002°55'1 2.3
2017-Oct-10 21:30N 04°37' W 002°56'0 0.6
2017-Oct-10 20:58N 04°37' W 002°55'1 1.7
2017-Oct-10 20:29N 04°36' W 002°55'1 2.2
2017-Oct-10 19:59N 04°35' W 002°55'0 0.9
2017-Oct-10 19:29N 04°35' W 002°55'1 1.2
2017-Oct-10 19:00N 04°36' W 002°55'1 1.1
2017-Oct-10 18:30N 04°36' W 002°54'1 1.5
2017-Oct-10 17:59N 04°37' W 002°54'1 1.5
2017-Oct-10 17:29N 04°38' W 002°54'1 1.6
2017-Oct-10 16:57N 04°39' W 002°54'3 5.6
2017-Oct-10 16:29N 04°37' W 002°56'2 3.5
2017-Oct-10 15:59N 04°36' W 002°55'1 2.6
2017-Oct-10 15:30N 04°35' W 002°55'0 0.6
2017-Oct-10 15:00N 04°35' W 002°55'3 1.6
2017-Oct-10 12:51N 04°37' W 002°52'1 2.4
2017-Oct-10 12:28N 04°37' W 002°53'1 1.7
2017-Oct-10 11:58N 04°37' W 002°54'1 1.9
2017-Oct-10 11:27N 04°36' W 002°54'0 0.3
2017-Oct-10 10:53N 04°36' W 002°54'1 0.7
2017-Oct-10 09:46N 04°37' W 002°54'1 1.6
2017-Oct-10 09:18N 04°36' W 002°54'1 2.2
2017-Oct-10 08:54N 04°35' W 002°54'2 1.1
2017-Oct-10 07:13N 04°37' W 002°54'0 1.0
2017-Oct-10 07:00N 04°37' W 002°54'1 1.6
2017-Oct-10 06:30N 04°38' W 002°54'2 2.4
2017-Oct-10 05:48N 04°37' W 002°52'2 5.6
2017-Oct-10 05:29N 04°36' W 002°52'1 2.1
2017-Oct-10 04:59N 04°35' W 002°52'1 1.5
2017-Oct-10 04:30N 04°35' W 002°52'1 1.4
2017-Oct-10 03:59N 04°36' W 002°52'1 1.3
2017-Oct-10 03:29N 04°36' W 002°52'1 1.2
2017-Oct-10 02:59N 04°37' W 002°52'1 1.2
2017-Oct-10 02:28N 04°37' W 002°53'0 1.0
2017-Oct-10 02:00N 04°38' W 002°53'2 0.7
2017-Oct-09 23:06N 04°37' W 002°51'0 3.0
2017-Oct-09 22:59N 04°37' W 002°51'1 2.2
2017-Oct-09 22:29N 04°36' W 002°52'0 0.8
2017-Oct-09 22:00N 04°35' W 002°52'1 1.0
2017-Oct-09 21:29N 04°35' W 002°51'0 0.4
2017-Oct-09 20:59N 04°35' W 002°51'1 2.4
2017-Oct-09 20:30N 04°36' W 002°52'0 0.8
2017-Oct-09 19:59N 04°36' W 002°52'1 2.7
2017-Oct-09 19:30N 04°35' W 002°52'1 1.4
2017-Oct-09 18:58N 04°34' W 002°52'1 1.5
2017-Oct-09 18:30N 04°35' W 002°52'1 1.5
2017-Oct-09 18:00N 04°36' W 002°52'1 1.5
2017-Oct-09 17:30N 04°36' W 002°52'2 2.9
2017-Oct-09 16:59N 04°37' W 002°54'2 4.4
2017-Oct-09 16:29N 04°35' W 002°55'  

Dump ship's entire track history